createdAt,value
2017-07-26T00:00:16.167Z,39.90
2017-07-26T00:02:44.374Z,40.07
2017-07-26T00:05:12.526Z,39.40
2017-07-26T00:07:40.573Z,38.73
2017-07-26T00:10:08.665Z,40.23
2017-07-26T00:12:36.822Z,40.40
2017-07-26T00:15:04.915Z,37.87
2017-07-26T00:17:33.005Z,39.43
2017-07-26T00:20:01.195Z,39.27
2017-07-26T00:22:29.258Z,39.10
2017-07-26T00:24:57.326Z,38.70
2017-07-26T00:27:25.494Z,37.87
2017-07-26T00:29:53.561Z,35.83
2017-07-26T00:32:21.563Z,37.93
2017-07-26T00:34:49.750Z,36.53
2017-07-26T00:37:17.786Z,37.50
2017-07-26T00:39:45.792Z,38.60
2017-07-26T00:42:13.979Z,36.60
2017-07-26T00:44:42.070Z,37.10
2017-07-26T00:47:10.100Z,37.17
2017-07-26T00:49:38.258Z,38.10
2017-07-26T00:52:06.339Z,39.90
2017-07-26T00:54:34.491Z,40.10
2017-07-26T00:57:02.640Z,37.03
2017-07-26T00:59:30.655Z,37.43
2017-07-26T01:01:58.669Z,36.80
2017-07-26T01:04:26.781Z,36.40
2017-07-26T01:06:54.848Z,39.27
2017-07-26T01:09:22.933Z,35.70
2017-07-26T01:11:51.091Z,36.93
2017-07-26T01:14:19.188Z,38.60
2017-07-26T01:16:47.227Z,38.37
2017-07-26T01:19:15.376Z,38.27
2017-07-26T01:21:43.400Z,39.10
2017-07-26T01:24:11.452Z,38.10
2017-07-26T01:26:39.700Z,40.43
2017-07-26T01:29:07.711Z,38.20
2017-07-26T01:31:35.742Z,36.90
2017-07-26T01:34:03.920Z,39.13
2017-07-26T01:36:31.975Z,38.97
2017-07-26T01:39:00.032Z,40.10
2017-07-26T01:41:28.253Z,40.37
2017-07-26T01:43:56.342Z,39.80
2017-07-26T01:46:24.469Z,40.20
2017-07-26T01:48:52.669Z,39.30
2017-07-26T01:51:20.734Z,38.90
2017-07-26T01:53:48.825Z,39.67
2017-07-26T01:56:17.455Z,41.87
2017-07-26T01:58:45.503Z,41.70
2017-07-26T02:01:13.640Z,38.60
2017-07-26T02:03:42.997Z,38.53
2017-07-26T02:06:11.076Z,38.13
2017-07-26T02:08:39.105Z,38.17
2017-07-26T02:11:07.279Z,37.60
2017-07-26T02:13:35.344Z,39.20
2017-07-26T02:16:03.373Z,38.40
2017-07-26T02:18:31.506Z,36.43
2017-07-26T02:20:59.547Z,38.07
2017-07-26T02:23:27.633Z,37.10
2017-07-26T02:25:55.795Z,37.03
2017-07-26T02:28:23.891Z,39.90
2017-07-26T02:30:51.968Z,38.00
2017-07-26T02:33:20.138Z,35.53
2017-07-26T02:35:48.251Z,36.30
2017-07-26T02:38:16.286Z,39.17
2017-07-26T02:40:44.452Z,38.20
2017-07-26T02:43:12.482Z,36.50
2017-07-26T02:45:40.510Z,36.73
2017-07-26T02:48:08.768Z,38.70
2017-07-26T02:50:36.851Z,37.57
2017-07-26T02:53:04.901Z,36.00
2017-07-26T02:55:33.168Z,35.30
2017-07-26T02:58:01.341Z,34.30
2017-07-26T03:00:29.350Z,36.83
2017-07-26T03:02:57.561Z,34.03
2017-07-26T03:05:25.555Z,33.77
2017-07-26T03:07:53.549Z,30.73
2017-07-26T03:10:21.766Z,30.03
2017-07-26T03:12:49.935Z,31.73
2017-07-26T03:15:17.980Z,31.60
2017-07-26T03:17:46.136Z,30.77
2017-07-26T03:20:14.165Z,30.67
2017-07-26T03:22:42.162Z,32.40
2017-07-26T03:25:10.317Z,31.67
2017-07-26T03:27:38.389Z,29.13
2017-07-26T03:30:06.447Z,30.03
2017-07-26T03:32:34.601Z,26.27
2017-07-26T03:35:02.626Z,27.20
2017-07-26T03:37:30.672Z,23.10
2017-07-26T03:39:58.894Z,21.03
2017-07-26T03:42:26.914Z,20.30
2017-07-26T03:44:54.988Z,19.67
2017-07-26T03:47:23.116Z,20.63
2017-07-26T03:49:51.138Z,20.07
2017-07-26T03:52:19.142Z,17.60
2017-07-26T03:54:47.332Z,17.97
2017-07-26T03:57:15.381Z,16.40
2017-07-26T03:59:43.557Z,14.70
2017-07-26T04:02:11.784Z,16.10
2017-07-26T04:04:39.810Z,15.40
2017-07-26T04:07:07.870Z,15.97
2017-07-26T04:09:36.036Z,15.13
2017-07-26T04:12:04.155Z,13.80
2017-07-26T04:14:32.228Z,14.97
2017-07-26T04:17:00.425Z,15.10
2017-07-26T04:19:28.432Z,15.50
2017-07-26T04:21:56.424Z,14.77
2017-07-26T04:24:24.623Z,13.30
2017-07-26T04:26:52.653Z,14.00
2017-07-26T04:29:20.679Z,13.27
2017-07-26T04:31:48.863Z,14.40
2017-07-26T04:34:17.152Z,13.60
2017-07-26T04:36:45.192Z,13.80
2017-07-26T04:39:13.367Z,14.27
2017-07-26T04:41:41.407Z,14.60
2017-07-26T04:44:09.505Z,14.00
2017-07-26T04:46:37.773Z,12.60
2017-07-26T04:49:05.811Z,13.27
2017-07-26T04:51:33.856Z,13.73
2017-07-26T04:54:02.025Z,15.43
2017-07-26T04:56:30.064Z,13.30
2017-07-26T04:58:58.176Z,15.27
2017-07-26T05:01:26.538Z,16.13
2017-07-26T05:03:54.579Z,15.80
2017-07-26T05:06:22.639Z,12.35
2017-07-26T05:08:50.809Z,13.45
2017-07-26T05:11:18.824Z,14.35
2017-07-26T05:13:46.905Z,16.00
2017-07-26T05:16:15.108Z,15.15
2017-07-26T05:18:43.119Z,17.25
2017-07-26T05:21:11.174Z,16.42
2017-07-26T05:23:39.362Z,15.90
2017-07-26T05:26:07.448Z,17.85
2017-07-26T05:28:35.469Z,17.02
2017-07-26T05:31:03.670Z,17.02
2017-07-26T05:33:31.686Z,17.42
2017-07-26T05:35:59.677Z,17.92
2017-07-26T05:38:27.801Z,17.65
2017-07-26T05:40:55.884Z,19.55
2017-07-26T05:43:23.963Z,17.48
2017-07-26T05:45:52.117Z,16.87
2017-07-26T05:48:20.152Z,19.27
2017-07-26T05:50:48.232Z,19.05
2017-07-26T05:53:16.376Z,19.05
2017-07-26T05:55:44.470Z,18.05
2017-07-26T05:58:12.541Z,16.65
2017-07-26T06:00:40.791Z,16.70
2017-07-26T06:03:08.967Z,16.77
2017-07-26T06:05:36.993Z,16.48
2017-07-26T06:08:05.150Z,16.60
2017-07-26T06:10:33.196Z,16.30
2017-07-26T06:13:01.300Z,16.35
2017-07-26T06:15:29.519Z,16.70
2017-07-26T06:17:57.550Z,15.73
2017-07-26T06:20:25.596Z,16.15
2017-07-26T06:22:53.742Z,16.98
2017-07-26T06:25:21.807Z,16.67
2017-07-26T06:27:49.850Z,16.90
2017-07-26T06:30:18.083Z,17.35
2017-07-26T06:32:46.139Z,16.33
2017-07-26T06:35:14.218Z,16.90
2017-07-26T06:37:42.416Z,16.80
2017-07-26T06:40:10.446Z,17.02
2017-07-26T06:42:38.492Z,16.80
2017-07-26T06:45:06.670Z,18.20
2017-07-26T06:47:34.736Z,16.08
2017-07-26T06:50:02.808Z,17.10
2017-07-26T06:52:31.012Z,15.90
2017-07-26T06:54:59.056Z,16.27
2017-07-26T06:57:27.144Z,17.30
2017-07-26T06:59:55.311Z,19.77
2017-07-26T07:02:23.356Z,17.73
2017-07-26T07:04:51.567Z,17.67
2017-07-26T07:07:19.772Z,15.10
2017-07-26T07:09:47.775Z,16.05
2017-07-26T07:12:15.774Z,16.37
2017-07-26T07:14:43.920Z,16.92
2017-07-26T07:17:11.967Z,17.23
2017-07-26T07:19:40.070Z,18.27
2017-07-26T07:22:08.207Z,15.32
2017-07-26T07:24:36.266Z,16.48
2017-07-26T07:27:04.335Z,15.65
2017-07-26T07:29:32.526Z,17.30
2017-07-26T07:32:00.547Z,16.98
2017-07-26T07:34:28.591Z,16.55
2017-07-26T07:36:56.773Z,18.48
2017-07-26T07:39:24.798Z,16.87
2017-07-26T07:41:52.801Z,16.35
2017-07-26T07:44:21.029Z,17.67
2017-07-26T07:46:49.072Z,18.20
2017-07-26T07:49:17.153Z,16.05
2017-07-26T07:51:45.333Z,16.37
2017-07-26T07:54:13.393Z,16.05
2017-07-26T07:56:41.479Z,16.52
2017-07-26T07:59:09.653Z,19.10
2017-07-26T08:01:37.695Z,17.95
2017-07-26T08:04:05.800Z,17.50
2017-07-26T08:06:34.137Z,16.62
2017-07-26T08:09:02.221Z,16.87
2017-07-26T08:11:30.300Z,18.27
2017-07-26T08:13:58.510Z,16.05
2017-07-26T08:16:26.561Z,16.10
2017-07-26T08:18:54.618Z,16.50
2017-07-26T08:21:22.770Z,17.05
2017-07-26T08:23:50.862Z,17.77
2017-07-26T08:26:18.861Z,15.68
2017-07-26T08:28:47.087Z,16.02
2017-07-26T08:31:15.197Z,17.08
2017-07-26T08:33:43.226Z,16.45
2017-07-26T08:36:11.381Z,16.05
2017-07-26T08:38:39.384Z,15.90
2017-07-26T08:41:07.480Z,17.30
2017-07-26T08:43:35.644Z,14.98
2017-07-26T08:46:03.726Z,15.80
2017-07-26T08:48:31.753Z,15.57
2017-07-26T08:50:59.919Z,17.23
2017-07-26T08:53:28.004Z,15.48
2017-07-26T08:55:56.046Z,14.48
2017-07-26T08:58:24.201Z,16.62
2017-07-26T09:00:52.303Z,17.58
2017-07-26T09:03:20.381Z,16.17
2017-07-26T09:05:48.650Z,16.65
2017-07-26T09:08:16.832Z,14.35
2017-07-26T09:10:44.907Z,14.60
2017-07-26T09:13:13.148Z,16.95
2017-07-26T09:15:41.217Z,17.65
2017-07-26T09:18:09.285Z,18.83
2017-07-26T09:20:37.516Z,18.52
2017-07-26T09:23:05.556Z,18.42
2017-07-26T09:25:33.590Z,17.15
2017-07-26T09:28:01.815Z,16.50
2017-07-26T09:30:29.873Z,17.45
2017-07-26T09:32:57.943Z,18.25
2017-07-26T09:35:26.110Z,18.12
2017-07-26T09:37:54.162Z,17.73
2017-07-26T09:40:22.267Z,18.75
2017-07-26T09:42:50.487Z,16.85
2017-07-26T09:45:18.603Z,19.40
2017-07-26T09:47:46.634Z,17.80
2017-07-26T09:50:14.868Z,18.27
2017-07-26T09:52:42.943Z,17.30
2017-07-26T09:55:10.988Z,17.48
2017-07-26T09:57:39.106Z,17.08
2017-07-26T10:00:07.175Z,16.77
2017-07-26T10:02:35.222Z,16.67
2017-07-26T10:05:03.360Z,17.77
2017-07-26T10:07:31.428Z,16.27
2017-07-26T10:09:59.590Z,18.35
2017-07-26T10:12:27.742Z,15.88
2017-07-26T10:14:55.807Z,19.20
2017-07-26T10:17:23.874Z,17.60
2017-07-26T10:19:52.041Z,18.08
2017-07-26T10:22:20.117Z,17.15
2017-07-26T10:24:48.141Z,18.35
2017-07-26T10:27:16.472Z,20.08
2017-07-26T10:29:44.567Z,17.73
2017-07-26T10:32:12.672Z,14.93
2017-07-26T10:34:41.002Z,17.70
2017-07-26T10:37:09.089Z,16.08
2017-07-26T10:39:37.178Z,18.67
2017-07-26T10:42:05.270Z,18.50
2017-07-26T10:44:33.493Z,18.30
2017-07-26T10:47:01.571Z,17.67
2017-07-26T11:02:33.621Z,18.77
2017-07-26T11:05:02.303Z,19.67
2017-07-26T11:07:30.368Z,19.70
2017-07-26T11:09:58.527Z,19.10
2017-07-26T11:12:26.787Z,18.20
2017-07-26T11:14:54.831Z,19.10
2017-07-26T11:17:23.008Z,18.40
2017-07-26T11:19:51.022Z,18.00
2017-07-26T11:42:36.577Z,19.77
2017-07-26T11:45:04.633Z,18.90
2017-07-26T11:47:32.707Z,20.17
2017-07-26T11:50:00.894Z,18.97
2017-07-26T11:52:28.964Z,18.97
2017-07-26T11:54:57.040Z,19.40
2017-07-26T11:57:25.201Z,20.70
2017-07-26T11:59:53.224Z,19.40
2017-07-26T12:02:21.320Z,20.90
2017-07-26T12:04:49.483Z,20.87
2017-07-26T12:07:17.509Z,20.63
2017-07-26T12:09:45.536Z,20.30
2017-07-26T12:12:13.727Z,19.30
2017-07-26T12:14:41.869Z,19.20
2017-07-26T12:17:10.097Z,19.97
2017-07-26T12:19:38.256Z,19.63
2017-07-26T12:22:06.272Z,20.30
2017-07-26T12:24:34.350Z,21.00
2017-07-26T12:27:02.500Z,20.00
2017-07-26T12:29:30.558Z,19.37
2017-07-26T12:31:58.604Z,19.13
2017-07-26T12:34:26.766Z,21.87
2017-07-26T12:36:54.811Z,23.40
2017-07-26T12:39:22.853Z,20.87
2017-07-26T12:41:51.035Z,19.83
2017-07-26T12:44:19.056Z,20.60
2017-07-26T12:46:47.107Z,19.20
2017-07-26T12:49:15.323Z,20.57
2017-07-26T12:51:43.345Z,19.37
2017-07-26T12:54:11.439Z,20.50
2017-07-26T12:56:39.651Z,19.93
2017-07-26T12:59:07.708Z,19.70
2017-07-26T13:01:35.793Z,20.20
2017-07-26T13:04:04.000Z,20.77
2017-07-26T13:06:32.096Z,21.57
2017-07-26T13:09:00.135Z,20.80
2017-07-26T13:11:28.296Z,19.10
2017-07-26T13:13:56.401Z,21.00
2017-07-26T13:16:24.605Z,19.77
2017-07-26T13:18:52.720Z,19.90
2017-07-26T13:21:20.811Z,20.50
2017-07-26T13:23:48.898Z,18.80
2017-07-26T13:26:17.018Z,19.50
2017-07-26T13:28:45.042Z,19.43
2017-07-26T13:31:13.092Z,20.63
2017-07-26T13:33:41.344Z,18.70
2017-07-26T13:36:09.383Z,19.77
2017-07-26T13:38:37.395Z,19.90
2017-07-26T13:41:05.567Z,18.17
2017-07-26T13:43:33.611Z,19.40
2017-07-26T13:46:01.702Z,17.53
2017-07-26T13:48:29.867Z,17.87
2017-07-26T13:50:57.893Z,19.83
2017-07-26T13:53:25.960Z,19.17
2017-07-26T13:55:54.151Z,19.27
2017-07-26T13:58:22.179Z,19.20
2017-07-26T14:00:50.237Z,17.93
2017-07-26T14:03:18.457Z,18.60
2017-07-26T14:05:46.516Z,20.83
2017-07-26T14:08:14.574Z,19.67
2017-07-26T14:10:42.774Z,18.97
2017-07-26T14:13:10.815Z,18.60
2017-07-26T14:15:38.887Z,20.03
2017-07-26T14:18:07.314Z,19.13
2017-07-26T14:20:35.369Z,24.30
2017-07-26T14:23:03.491Z,23.87
2017-07-26T14:25:31.642Z,28.97
2017-07-26T14:27:59.684Z,33.70
2017-07-26T14:30:27.816Z,33.37
2017-07-26T14:32:56.041Z,37.17
2017-07-26T14:35:24.115Z,36.93
2017-07-26T14:37:52.146Z,38.20
2017-07-26T14:40:20.354Z,40.20
2017-07-26T14:42:48.382Z,40.40
2017-07-26T14:45:16.470Z,42.70
2017-07-26T14:47:44.641Z,40.70
2017-07-26T14:50:12.647Z,39.90
2017-07-26T14:52:40.705Z,41.33
2017-07-26T14:55:08.935Z,39.67
2017-07-26T14:57:37.036Z,39.80
2017-07-26T15:00:05.102Z,38.87
2017-07-26T15:02:33.296Z,41.80
2017-07-26T15:05:01.334Z,41.87
2017-07-26T15:07:29.394Z,40.27
2017-07-26T15:09:57.542Z,42.43
2017-07-26T15:12:25.545Z,43.97
2017-07-26T15:14:53.734Z,44.53
2017-07-26T15:17:21.897Z,44.63
2017-07-26T15:19:50.096Z,46.47
2017-07-26T15:22:18.126Z,46.90
2017-07-26T15:24:46.305Z,46.07
2017-07-26T15:27:14.335Z,43.87
2017-07-26T15:29:42.384Z,46.30
2017-07-26T15:32:10.550Z,45.83
2017-07-26T15:34:38.605Z,48.67
2017-07-26T15:37:06.662Z,50.33
2017-07-26T15:39:35.055Z,47.70
2017-07-26T15:42:03.169Z,46.80
2017-07-26T15:44:31.195Z,48.53
2017-07-26T15:46:59.358Z,48.43
2017-07-26T15:49:27.445Z,46.07
2017-07-26T15:51:55.505Z,45.87
2017-07-26T15:54:23.702Z,44.70
2017-07-26T15:56:51.800Z,46.10
2017-07-26T15:59:19.877Z,47.00
2017-07-26T16:01:48.003Z,44.87
2017-07-26T16:04:16.491Z,46.80
2017-07-26T16:06:44.525Z,47.50
2017-07-26T16:09:12.681Z,49.20
2017-07-26T16:11:40.765Z,49.70
2017-07-26T16:14:08.836Z,48.93
2017-07-26T16:16:37.028Z,49.27
2017-07-26T16:19:05.059Z,50.23
2017-07-26T16:21:33.363Z,45.57
2017-07-26T16:24:01.551Z,48.90
2017-07-26T16:26:29.606Z,49.90
2017-07-26T16:28:57.647Z,45.47
2017-07-26T16:31:25.847Z,48.80
2017-07-26T16:33:53.916Z,47.77
2017-07-26T16:36:21.994Z,43.13
2017-07-26T16:38:50.161Z,43.20
2017-07-26T16:41:18.190Z,43.30
2017-07-26T16:46:42.522Z,43.37
2017-07-26T16:49:10.523Z,42.00
2017-07-26T16:51:38.590Z,41.00
2017-07-26T16:54:06.778Z,41.63
2017-07-26T16:56:34.838Z,43.80
2017-07-26T16:59:02.907Z,42.17
2017-07-26T17:01:31.081Z,44.07
2017-07-26T17:03:59.116Z,43.47
2017-07-26T17:06:27.176Z,46.17
2017-07-26T17:08:55.388Z,43.67
2017-07-26T17:11:23.500Z,43.60
2017-07-26T17:13:51.559Z,42.43
2017-07-26T17:16:19.712Z,42.00
2017-07-26T17:18:47.774Z,43.10
2017-07-26T17:21:15.838Z,42.30
2017-07-26T17:23:44.170Z,43.17
2017-07-26T17:26:12.208Z,43.10
2017-07-26T17:28:40.292Z,42.00
2017-07-26T17:31:08.503Z,46.13
2017-07-26T17:33:36.551Z,43.80
2017-07-26T17:36:04.560Z,44.50
2017-07-26T17:38:32.720Z,44.50
2017-07-26T17:41:00.799Z,45.03
2017-07-26T17:43:28.831Z,43.60
2017-07-26T17:45:57.022Z,44.60
2017-07-26T17:48:25.046Z,45.20
2017-07-26T17:50:53.092Z,46.70
2017-07-26T17:53:21.250Z,43.87
2017-07-26T17:55:49.290Z,44.37
2017-07-26T17:58:17.309Z,45.77
2017-07-26T18:00:45.465Z,47.43
2017-07-26T18:03:13.533Z,44.10
2017-07-26T18:05:41.591Z,44.77
2017-07-26T18:08:09.796Z,45.40
2017-07-26T18:10:37.849Z,49.00
2017-07-26T18:13:05.951Z,48.43
2017-07-26T18:15:34.140Z,51.93
2017-07-26T18:18:02.170Z,51.27
2017-07-26T18:20:30.275Z,53.63
2017-07-26T18:22:58.462Z,52.63
2017-07-26T18:25:26.608Z,50.13
2017-07-26T18:27:54.661Z,50.67
2017-07-26T18:30:22.842Z,50.50
2017-07-26T18:32:50.881Z,49.33
2017-07-26T18:35:18.961Z,52.10
2017-07-26T18:37:47.160Z,51.30
2017-07-26T18:40:15.201Z,49.93
2017-07-26T18:42:43.310Z,49.43
2017-07-26T18:45:11.504Z,51.97
2017-07-26T18:47:39.508Z,53.17
2017-07-26T18:50:07.524Z,50.90
2017-07-26T18:52:35.683Z,52.03
2017-07-26T18:55:03.814Z,49.83
2017-07-26T18:57:31.880Z,49.97
2017-07-26T19:00:00.086Z,50.07
2017-07-26T19:02:28.150Z,51.30
2017-07-26T19:04:56.226Z,50.00
2017-07-26T19:07:24.376Z,49.73
2017-07-26T19:09:52.404Z,48.63
2017-07-26T19:12:20.470Z,49.07
2017-07-26T19:14:48.645Z,49.97
2017-07-26T19:17:16.647Z,48.60
2017-07-26T19:19:44.721Z,49.97
2017-07-26T19:22:12.899Z,50.60
2017-07-26T19:24:40.952Z,50.57
2017-07-26T19:27:09.131Z,49.13
2017-07-26T19:29:37.340Z,51.47
2017-07-26T19:32:05.435Z,50.67
2017-07-26T19:34:33.552Z,50.93
2017-07-26T19:37:01.780Z,49.43
2017-07-26T19:39:29.863Z,51.03
2017-07-26T19:41:57.940Z,50.80
2017-07-26T19:44:26.135Z,51.13
2017-07-26T19:46:54.252Z,51.50
2017-07-26T19:49:22.270Z,48.20
2017-07-26T19:51:50.457Z,48.73
2017-07-26T19:54:18.499Z,49.43
2017-07-26T19:56:46.592Z,48.93
2017-07-26T19:59:14.741Z,49.13
2017-07-26T20:01:42.793Z,50.63
2017-07-26T20:04:10.858Z,51.47
2017-07-26T20:06:39.000Z,54.20
2017-07-26T20:09:06.990Z,51.67
2017-07-26T20:11:35.075Z,50.63
2017-07-26T20:14:03.416Z,50.47
2017-07-26T20:16:31.489Z,51.47
2017-07-26T20:18:59.551Z,49.07
2017-07-26T20:21:27.734Z,48.17
2017-07-26T20:23:55.797Z,48.57
2017-07-26T20:26:23.895Z,47.47
2017-07-26T20:28:52.169Z,49.23
2017-07-26T20:31:20.291Z,49.13
2017-07-26T20:33:48.346Z,49.17
2017-07-26T20:36:16.545Z,49.27
2017-07-26T20:38:44.663Z,47.30
2017-07-26T20:41:12.854Z,48.73
2017-07-26T20:43:41.785Z,49.13
2017-07-26T20:46:11.513Z,48.40
2017-07-26T20:48:40.094Z,50.00
2017-07-26T20:51:09.075Z,48.07
2017-07-26T20:53:37.730Z,45.50
2017-07-26T20:56:05.799Z,43.33
2017-07-26T20:58:34.615Z,41.10
2017-07-26T21:01:02.797Z,44.77
2017-07-26T21:03:31.045Z,44.27
2017-07-26T21:06:00.030Z,44.23
2017-07-26T21:08:28.180Z,40.20
2017-07-26T21:10:56.490Z,41.33
2017-07-26T21:13:25.092Z,38.13
2017-07-26T21:15:53.549Z,40.70
2017-07-26T21:18:22.356Z,41.60
2017-07-26T21:20:51.999Z,40.70
2017-07-26T21:23:20.697Z,39.90
2017-07-26T21:25:48.897Z,41.30
2017-07-26T21:28:17.136Z,39.03
2017-07-26T21:30:45.297Z,40.87
2017-07-26T21:33:13.918Z,41.07
2017-07-26T21:35:43.778Z,38.37
2017-07-26T21:38:12.522Z,38.63
2017-07-26T21:40:40.890Z,39.20
2017-07-26T21:43:09.495Z,40.50
2017-07-26T21:45:38.321Z,39.90
2017-07-26T21:48:06.318Z,41.10
2017-07-26T21:50:34.838Z,42.20
2017-07-26T21:53:03.889Z,41.23
2017-07-26T21:55:31.896Z,42.90
2017-07-26T21:58:00.632Z,42.00
2017-07-26T22:00:29.319Z,40.17
2017-07-26T22:02:57.337Z,40.30
2017-07-26T22:05:27.056Z,37.37
2017-07-26T22:07:55.934Z,37.47
2017-07-26T22:10:25.766Z,37.60
2017-07-26T22:12:54.600Z,36.00
2017-07-26T22:15:23.092Z,39.70
2017-07-26T22:17:51.580Z,41.40
2017-07-26T22:20:21.515Z,40.17
2017-07-26T22:22:49.718Z,38.00
2017-07-26T22:25:19.359Z,41.50
2017-07-26T22:27:48.130Z,38.83
2017-07-26T22:30:16.860Z,40.80
2017-07-26T22:32:45.583Z,41.60
2017-07-26T22:35:13.935Z,41.57
2017-07-26T22:37:42.326Z,40.30
2017-07-26T22:40:10.364Z,40.83
2017-07-26T22:42:38.705Z,39.87
2017-07-26T22:45:06.752Z,40.23
2017-07-26T22:47:35.232Z,39.90
2017-07-26T22:50:04.010Z,41.23
2017-07-26T22:52:32.817Z,42.40
2017-07-26T22:55:01.510Z,41.67
2017-07-26T22:57:30.128Z,40.10
2017-07-26T22:59:58.195Z,42.30
2017-07-26T23:02:26.651Z,40.53
2017-07-26T23:04:56.726Z,41.77
2017-07-26T23:07:25.344Z,39.13
2017-07-26T23:09:53.892Z,39.90
2017-07-26T23:12:22.867Z,40.50
2017-07-26T23:14:51.150Z,38.70
2017-07-26T23:17:19.618Z,40.40
2017-07-26T23:19:48.674Z,40.20
2017-07-26T23:22:16.944Z,39.10
2017-07-26T23:24:44.946Z,39.30
2017-07-26T23:27:13.732Z,40.30
2017-07-26T23:29:42.171Z,39.60
2017-07-26T23:32:10.406Z,39.10
2017-07-26T23:34:39.276Z,39.00
2017-07-26T23:37:07.424Z,38.67
2017-07-26T23:39:35.488Z,37.80
2017-07-26T23:42:04.579Z,37.03
2017-07-26T23:44:32.601Z,43.20
2017-07-26T23:47:00.942Z,41.03
2017-07-26T23:49:30.031Z,41.60
2017-07-26T23:51:58.279Z,39.50
2017-07-26T23:54:26.304Z,40.53
2017-07-26T23:56:54.460Z,41.00
2017-07-26T23:59:23.054Z,43.67
